Ducos, Argentina
Current Conditions -  °F | °C
As of 3:00 PM on Tuesday 27 Jan 2015 (Local Time) from SAZM Reporting Station
Broken Clouds Broken Clouds  
Wind Chill: 91°   Ceiling: 20000
Heat Index: 95°   Visibility: 6mi
Dew Point: 68°   Wind: 17mph
Humidity: 46%   Direction: 320°NW
Pressure: 29.65"   Gusts: NA
Location:  37.47°S, 62.42°W
Report Text: SAZM 271800Z 32015KT 9999 FEW026 FEW030TCUBKN200 33/20 Q1004
Loading
Personal Weather Stations






























Interactive Weather Map New forecast layout! Learn more

10-Day Weather Forecast

Advertisements
Track Severe Weather on mobile